sensor_id;sensor_type;location;lat;lon;timestamp;temperature;humidity
10459;DHT22;5277;48.722;8.736;2023-04-25T00:01:27;8.20;99.90
10459;DHT22;5277;48.722;8.736;2023-04-25T00:03:52;8.10;99.90
10459;DHT22;5277;48.722;8.736;2023-04-25T00:06:18;8.00;99.90
10459;DHT22;5277;48.722;8.736;2023-04-25T00:08:44;8.00;99.90
10459;DHT22;5277;48.722;8.736;2023-04-25T00:11:09;8.00;99.90
10459;DHT22;5277;48.722;8.736;2023-04-25T00:13:35;8.00;99.90
10459;DHT22;5277;48.722;8.736;2023-04-25T00:16:01;7.90;99.90
10459;DHT22;5277;48.722;8.736;2023-04-25T00:18:27;7.90;99.90
10459;DHT22;5277;48.722;8.736;2023-04-25T00:20:55;7.90;99.90
10459;DHT22;5277;48.722;8.736;2023-04-25T00:23:21;7.90;99.90
10459;DHT22;5277;48.722;8.736;2023-04-25T00:25:48;8.00;99.90
10459;DHT22;5277;48.722;8.736;2023-04-25T00:28:14;7.90;99.90
10459;DHT22;5277;48.722;8.736;2023-04-25T00:30:41;8.00;99.90
10459;DHT22;5277;48.722;8.736;2023-04-25T00:33:07;8.10;99.90
10459;DHT22;5277;48.722;8.736;2023-04-25T00:35:33;8.00;99.90
10459;DHT22;5277;48.722;8.736;2023-04-25T00:37:59;8.00;99.90
10459;DHT22;5277;48.722;8.736;2023-04-25T00:40:25;8.00;99.90
10459;DHT22;5277;48.722;8.736;2023-04-25T00:42:52;8.00;99.90
10459;DHT22;5277;48.722;8.736;2023-04-25T00:45:18;8.00;99.90
10459;DHT22;5277;48.722;8.736;2023-04-25T00:47:44;8.10;99.90
10459;DHT22;5277;48.722;8.736;2023-04-25T00:50:11;8.00;99.90
10459;DHT22;5277;48.722;8.736;2023-04-25T00:52:43;8.00;99.90
10459;DHT22;5277;48.722;8.736;2023-04-25T00:55:10;7.90;99.90
10459;DHT22;5277;48.722;8.736;2023-04-25T00:57:37;7.90;99.90
10459;DHT22;5277;48.722;8.736;2023-04-25T01:00:06;7.90;99.90
10459;DHT22;5277;48.722;8.736;2023-04-25T01:02:33;7.90;99.90
10459;DHT22;5277;48.722;8.736;2023-04-25T01:05:01;7.90;99.90
10459;DHT22;5277;48.722;8.736;2023-04-25T01:07:26;7.90;99.90
10459;DHT22;5277;48.722;8.736;2023-04-25T01:09:52;7.90;99.90
10459;DHT22;5277;48.722;8.736;2023-04-25T01:12:18;7.90;99.90
10459;DHT22;5277;48.722;8.736;2023-04-25T01:14:44;7.90;99.90
10459;DHT22;5277;48.722;8.736;2023-04-25T01:17:10;8.00;99.90
10459;DHT22;5277;48.722;8.736;2023-04-25T01:19:36;8.00;99.90
10459;DHT22;5277;48.722;8.736;2023-04-25T01:22:02;8.00;99.90
10459;DHT22;5277;48.722;8.736;2023-04-25T01:24:29;7.80;99.90
10459;DHT22;5277;48.722;8.736;2023-04-25T01:26:56;7.80;99.90
10459;DHT22;5277;48.722;8.736;2023-04-25T01:29:23;7.80;99.90
10459;DHT22;5277;48.722;8.736;2023-04-25T01:31:50;7.80;99.90
10459;DHT22;5277;48.722;8.736;2023-04-25T01:34:16;7.70;99.90
10459;DHT22;5277;48.722;8.736;2023-04-25T01:36:42;7.80;99.90
10459;DHT22;5277;48.722;8.736;2023-04-25T01:39:07;7.80;99.90
10459;DHT22;5277;48.722;8.736;2023-04-25T01:41:33;7.80;99.90
10459;DHT22;5277;48.722;8.736;2023-04-25T01:44:02;7.90;99.90
10459;DHT22;5277;48.722;8.736;2023-04-25T01:46:29;7.70;99.90
10459;DHT22;5277;48.722;8.736;2023-04-25T01:48:54;7.70;99.90
10459;DHT22;5277;48.722;8.736;2023-04-25T01:51:20;7.60;99.90
10459;DHT22;5277;48.722;8.736;2023-04-25T01:53:46;7.50;99.90
10459;DHT22;5277;48.722;8.736;2023-04-25T01:56:12;7.40;99.90
10459;DHT22;5277;48.722;8.736;2023-04-25T01:58:37;7.40;99.90
10459;DHT22;5277;48.722;8.736;2023-04-25T02:01:03;7.10;99.90
10459;DHT22;5277;48.722;8.736;2023-04-25T02:03:30;7.10;99.90
10459;DHT22;5277;48.722;8.736;2023-04-25T02:05:56;7.20;99.90
10459;DHT22;5277;48.722;8.736;2023-04-25T02:08:21;7.20;99.90
10459;DHT22;5277;48.722;8.736;2023-04-25T02:10:47;7.20;99.90
10459;DHT22;5277;48.722;8.736;2023-04-25T02:13:12;7.10;99.90
10459;DHT22;5277;48.722;8.736;2023-04-25T02:15:38;7.10;99.90
10459;DHT22;5277;48.722;8.736;2023-04-25T02:18:03;7.10;99.90
10459;DHT22;5277;48.722;8.736;2023-04-25T02:20:31;7.10;99.90
10459;DHT22;5277;48.722;8.736;2023-04-25T02:22:57;7.00;99.90
10459;DHT22;5277;48.722;8.736;2023-04-25T02:25:23;7.00;99.90
10459;DHT22;5277;48.722;8.736;2023-04-25T02:28:01;6.90;99.90
10459;DHT22;5277;48.722;8.736;2023-04-25T02:30:33;6.90;99.90
10459;DHT22;5277;48.722;8.736;2023-04-25T02:33:10;7.00;99.90
10459;DHT22;5277;48.722;8.736;2023-04-25T02:35:36;6.90;99.90
10459;DHT22;5277;48.722;8.736;2023-04-25T02:52:24;7.10;99.90
10459;DHT22;5277;48.722;8.736;2023-04-25T03:05:53;7.30;99.90
10459;DHT22;5277;48.722;8.736;2023-04-25T03:12:44;7.40;99.90
10459;DHT22;5277;48.722;8.736;2023-04-25T03:15:22;7.30;99.90
10459;DHT22;5277;48.722;8.736;2023-04-25T03:17:59;7.30;99.90
10459;DHT22;5277;48.722;8.736;2023-04-25T03:30:41;7.10;99.90
10459;DHT22;5277;48.722;8.736;2023-04-25T03:33:51;7.00;99.90
10459;DHT22;5277;48.722;8.736;2023-04-25T03:36:32;7.00;99.90
10459;DHT22;5277;48.722;8.736;2023-04-25T03:42:16;6.90;99.90
10459;DHT22;5277;48.722;8.736;2023-04-25T03:44:45;6.80;99.90
10459;DHT22;5277;48.722;8.736;2023-04-25T03:47:10;6.60;99.90
10459;DHT22;5277;48.722;8.736;2023-04-25T03:49:36;6.50;99.90
10459;DHT22;5277;48.722;8.736;2023-04-25T03:52:02;6.50;99.90
10459;DHT22;5277;48.722;8.736;2023-04-25T03:54:28;6.40;99.90
10459;DHT22;5277;48.722;8.736;2023-04-25T03:56:57;6.50;99.90
10459;DHT22;5277;48.722;8.736;2023-04-25T03:59:22;6.30;99.90
10459;DHT22;5277;48.722;8.736;2023-04-25T04:02:12;6.30;99.90
10459;DHT22;5277;48.722;8.736;2023-04-25T04:04:47;6.20;99.90
10459;DHT22;5277;48.722;8.736;2023-04-25T04:10:10;6.20;99.90
10459;DHT22;5277;48.722;8.736;2023-04-25T04:12:39;6.40;99.90
10459;DHT22;5277;48.722;8.736;2023-04-25T04:15:37;6.30;99.90
10459;DHT22;5277;48.722;8.736;2023-04-25T04:18:31;6.30;99.90
10459;DHT22;5277;48.722;8.736;2023-04-25T04:34:26;6.70;99.90
10459;DHT22;5277;48.722;8.736;2023-04-25T04:36:54;6.80;99.90
10459;DHT22;5277;48.722;8.736;2023-04-25T04:39:29;6.90;99.90
10459;DHT22;5277;48.722;8.736;2023-04-25T04:42:23;7.00;99.90
10459;DHT22;5277;48.722;8.736;2023-04-25T04:44:52;7.00;99.90
10459;DHT22;5277;48.722;8.736;2023-04-25T04:47:44;7.10;99.90
10459;DHT22;5277;48.722;8.736;2023-04-25T04:50:15;7.20;99.90
10459;DHT22;5277;48.722;8.736;2023-04-25T04:56:38;7.30;99.90
10459;DHT22;5277;48.722;8.736;2023-04-25T04:59:17;7.30;99.90
10459;DHT22;5277;48.722;8.736;2023-04-25T05:08:19;7.50;99.90
10459;DHT22;5277;48.722;8.736;2023-04-25T05:15:03;7.50;99.90
10459;DHT22;5277;48.722;8.736;2023-04-25T05:24:00;7.60;99.90
10459;DHT22;5277;48.722;8.736;2023-04-25T05:26:28;7.60;99.90
10459;DHT22;5277;48.722;8.736;2023-04-25T05:33:09;7.70;99.90
10459;DHT22;5277;48.722;8.736;2023-04-25T05:35:44;7.70;99.90
10459;DHT22;5277;48.722;8.736;2023-04-25T05:38:21;7.80;99.90
10459;DHT22;5277;48.722;8.736;2023-04-25T05:40:55;7.80;99.90
10459;DHT22;5277;48.722;8.736;2023-04-25T05:43:36;7.90;99.90
10459;DHT22;5277;48.722;8.736;2023-04-25T05:46:02;7.90;99.90
10459;DHT22;5277;48.722;8.736;2023-04-25T05:48:33;8.00;99.90
10459;DHT22;5277;48.722;8.736;2023-04-25T05:54:46;8.10;99.90
10459;DHT22;5277;48.722;8.736;2023-04-25T05:57:34;8.10;99.90
10459;DHT22;5277;48.722;8.736;2023-04-25T06:00:52;8.30;99.90
10459;DHT22;5277;48.722;8.736;2023-04-25T06:07:39;8.20;99.90
10459;DHT22;5277;48.722;8.736;2023-04-25T06:13:36;7.90;99.90
10459;DHT22;5277;48.722;8.736;2023-04-25T06:26:56;8.10;99.90
10459;DHT22;5277;48.722;8.736;2023-04-25T06:45:14;8.50;99.90
10459;DHT22;5277;48.722;8.736;2023-04-25T06:47:39;8.50;99.90
10459;DHT22;5277;48.722;8.736;2023-04-25T06:50:05;8.40;99.90
10459;DHT22;5277;48.722;8.736;2023-04-25T06:52:31;8.50;99.90
10459;DHT22;5277;48.722;8.736;2023-04-25T06:54:57;8.60;99.90
10459;DHT22;5277;48.722;8.736;2023-04-25T06:57:23;8.60;99.90
10459;DHT22;5277;48.722;8.736;2023-04-25T06:59:50;8.70;99.90
10459;DHT22;5277;48.722;8.736;2023-04-25T07:02:16;8.70;99.90
10459;DHT22;5277;48.722;8.736;2023-04-25T07:04:42;8.70;99.90
10459;DHT22;5277;48.722;8.736;2023-04-25T07:07:07;8.70;99.90
10459;DHT22;5277;48.722;8.736;2023-04-25T07:09:33;8.70;99.90
10459;DHT22;5277;48.722;8.736;2023-04-25T07:11:59;8.70;99.90
10459;DHT22;5277;48.722;8.736;2023-04-25T07:14:29;8.70;99.90
10459;DHT22;5277;48.722;8.736;2023-04-25T07:16:55;8.80;99.90
10459;DHT22;5277;48.722;8.736;2023-04-25T07:19:22;8.90;99.90
10459;DHT22;5277;48.722;8.736;2023-04-25T07:21:49;8.80;99.90
10459;DHT22;5277;48.722;8.736;2023-04-25T07:24:15;8.80;99.90
10459;DHT22;5277;48.722;8.736;2023-04-25T07:26:40;8.90;99.90
10459;DHT22;5277;48.722;8.736;2023-04-25T07:29:06;9.00;99.90
10459;DHT22;5277;48.722;8.736;2023-04-25T07:31:31;8.90;99.90
10459;DHT22;5277;48.722;8.736;2023-04-25T07:33:57;9.00;99.90
10459;DHT22;5277;48.722;8.736;2023-04-25T07:36:23;9.00;99.90
10459;DHT22;5277;48.722;8.736;2023-04-25T07:38:48;9.00;99.90
10459;DHT22;5277;48.722;8.736;2023-04-25T07:41:14;9.00;99.90
10459;DHT22;5277;48.722;8.736;2023-04-25T07:43:39;9.00;99.90
10459;DHT22;5277;48.722;8.736;2023-04-25T07:46:05;8.90;99.90
10459;DHT22;5277;48.722;8.736;2023-04-25T07:48:31;8.80;99.90
10459;DHT22;5277;48.722;8.736;2023-04-25T07:50:57;8.80;99.90
10459;DHT22;5277;48.722;8.736;2023-04-25T07:53:22;8.70;99.90
10459;DHT22;5277;48.722;8.736;2023-04-25T07:55:48;8.70;99.90
10459;DHT22;5277;48.722;8.736;2023-04-25T07:58:14;8.70;99.90
10459;DHT22;5277;48.722;8.736;2023-04-25T08:00:40;8.80;99.90
10459;DHT22;5277;48.722;8.736;2023-04-25T08:03:07;8.90;99.90
10459;DHT22;5277;48.722;8.736;2023-04-25T08:05:32;8.90;99.90
10459;DHT22;5277;48.722;8.736;2023-04-25T08:07:58;8.80;99.90
10459;DHT22;5277;48.722;8.736;2023-04-25T08:10:24;8.90;99.90
10459;DHT22;5277;48.722;8.736;2023-04-25T08:12:50;8.80;99.90
10459;DHT22;5277;48.722;8.736;2023-04-25T08:15:15;8.90;99.90
10459;DHT22;5277;48.722;8.736;2023-04-25T08:17:41;8.90;99.90
10459;DHT22;5277;48.722;8.736;2023-04-25T08:20:09;9.00;99.90
10459;DHT22;5277;48.722;8.736;2023-04-25T08:22:36;8.90;99.90
10459;DHT22;5277;48.722;8.736;2023-04-25T08:25:01;8.90;99.90
10459;DHT22;5277;48.722;8.736;2023-04-25T08:27:27;8.90;99.90
10459;DHT22;5277;48.722;8.736;2023-04-25T08:29:53;8.90;99.90
10459;DHT22;5277;48.722;8.736;2023-04-25T08:32:19;8.90;99.90
10459;DHT22;5277;48.722;8.736;2023-04-25T08:34:46;8.90;99.90
10459;DHT22;5277;48.722;8.736;2023-04-25T08:37:12;8.90;99.90
10459;DHT22;5277;48.722;8.736;2023-04-25T08:39:37;8.90;99.90
10459;DHT22;5277;48.722;8.736;2023-04-25T08:42:06;8.90;99.90
10459;DHT22;5277;48.722;8.736;2023-04-25T08:44:34;8.90;99.90
10459;DHT22;5277;48.722;8.736;2023-04-25T08:47:03;9.00;99.90
10459;DHT22;5277;48.722;8.736;2023-04-25T08:49:31;9.00;99.90
10459;DHT22;5277;48.722;8.736;2023-04-25T08:52:00;9.00;99.90
10459;DHT22;5277;48.722;8.736;2023-04-25T08:54:27;9.00;99.90
10459;DHT22;5277;48.722;8.736;2023-04-25T08:56:54;8.90;99.90
10459;DHT22;5277;48.722;8.736;2023-04-25T08:59:23;8.90;99.90
10459;DHT22;5277;48.722;8.736;2023-04-25T09:01:49;8.70;99.90
10459;DHT22;5277;48.722;8.736;2023-04-25T09:04:15;8.80;99.90
10459;DHT22;5277;48.722;8.736;2023-04-25T09:06:41;8.80;99.90
10459;DHT22;5277;48.722;8.736;2023-04-25T09:09:08;8.80;99.90
10459;DHT22;5277;48.722;8.736;2023-04-25T09:11:36;8.70;99.90
10459;DHT22;5277;48.722;8.736;2023-04-25T09:14:16;8.80;99.90
10459;DHT22;5277;48.722;8.736;2023-04-25T09:21:54;8.80;99.90
10459;DHT22;5277;48.722;8.736;2023-04-25T09:24:31;8.70;99.90
10459;DHT22;5277;48.722;8.736;2023-04-25T09:26:57;8.70;99.90
10459;DHT22;5277;48.722;8.736;2023-04-25T09:29:34;8.70;99.90
10459;DHT22;5277;48.722;8.736;2023-04-25T09:34:59;8.80;99.90
10459;DHT22;5277;48.722;8.736;2023-04-25T09:37:30;8.70;99.90
10459;DHT22;5277;48.722;8.736;2023-04-25T09:39:57;8.70;99.90
10459;DHT22;5277;48.722;8.736;2023-04-25T09:42:30;8.60;99.90
10459;DHT22;5277;48.722;8.736;2023-04-25T09:44:58;8.50;99.90
10459;DHT22;5277;48.722;8.736;2023-04-25T09:47:25;8.70;99.90
10459;DHT22;5277;48.722;8.736;2023-04-25T09:49:52;8.60;99.90
10459;DHT22;5277;48.722;8.736;2023-04-25T09:52:20;8.70;99.90
10459;DHT22;5277;48.722;8.736;2023-04-25T09:54:47;8.70;99.90
10459;DHT22;5277;48.722;8.736;2023-04-25T09:57:18;8.80;99.90
10459;DHT22;5277;48.722;8.736;2023-04-25T09:59:49;8.90;99.90
10459;DHT22;5277;48.722;8.736;2023-04-25T10:02:36;8.90;99.90
10459;DHT22;5277;48.722;8.736;2023-04-25T10:05:05;9.00;99.90
10459;DHT22;5277;48.722;8.736;2023-04-25T10:07:33;9.00;99.90
10459;DHT22;5277;48.722;8.736;2023-04-25T10:10:02;9.00;99.90
10459;DHT22;5277;48.722;8.736;2023-04-25T10:12:29;9.10;99.90
10459;DHT22;5277;48.722;8.736;2023-04-25T10:15:08;9.00;99.90
10459;DHT22;5277;48.722;8.736;2023-04-25T10:17:35;9.00;99.90
10459;DHT22;5277;48.722;8.736;2023-04-25T10:20:02;9.00;99.90
10459;DHT22;5277;48.722;8.736;2023-04-25T10:22:47;8.80;99.90
10459;DHT22;5277;48.722;8.736;2023-04-25T10:25:14;8.90;99.90
10459;DHT22;5277;48.722;8.736;2023-04-25T10:27:40;9.10;99.90
10459;DHT22;5277;48.722;8.736;2023-04-25T10:30:24;9.20;99.90
10459;DHT22;5277;48.722;8.736;2023-04-25T10:32:50;9.30;99.90
10459;DHT22;5277;48.722;8.736;2023-04-25T10:35:18;9.40;99.90
10459;DHT22;5277;48.722;8.736;2023-04-25T10:38:03;9.50;99.90
10459;DHT22;5277;48.722;8.736;2023-04-25T10:40:30;9.50;99.90
10459;DHT22;5277;48.722;8.736;2023-04-25T10:43:35;9.70;99.90
10459;DHT22;5277;48.722;8.736;2023-04-25T10:46:29;9.90;99.90
10459;DHT22;5277;48.722;8.736;2023-04-25T10:48:57;9.70;99.90
10459;DHT22;5277;48.722;8.736;2023-04-25T10:51:27;9.80;99.90
10459;DHT22;5277;48.722;8.736;2023-04-25T10:53:58;10.00;99.90
10459;DHT22;5277;48.722;8.736;2023-04-25T10:59:16;10.00;99.90
10459;DHT22;5277;48.722;8.736;2023-04-25T11:01:48;10.10;99.90
10459;DHT22;5277;48.722;8.736;2023-04-25T11:09:29;10.00;99.90
10459;DHT22;5277;48.722;8.736;2023-04-25T11:11:56;9.90;99.90
10459;DHT22;5277;48.722;8.736;2023-04-25T11:14:22;9.80;99.90
10459;DHT22;5277;48.722;8.736;2023-04-25T11:16:56;9.80;99.90
10459;DHT22;5277;48.722;8.736;2023-04-25T11:19:44;9.90;99.90
10459;DHT22;5277;48.722;8.736;2023-04-25T11:22:23;9.80;99.90
10459;DHT22;5277;48.722;8.736;2023-04-25T11:24:49;9.60;99.90
10459;DHT22;5277;48.722;8.736;2023-04-25T11:27:16;9.50;99.90
10459;DHT22;5277;48.722;8.736;2023-04-25T11:29:41;9.10;99.90
10459;DHT22;5277;48.722;8.736;2023-04-25T11:32:07;8.80;99.90
10459;DHT22;5277;48.722;8.736;2023-04-25T11:34:33;8.60;99.90
10459;DHT22;5277;48.722;8.736;2023-04-25T11:37:00;8.40;99.90
10459;DHT22;5277;48.722;8.736;2023-04-25T11:39:27;8.40;99.90
10459;DHT22;5277;48.722;8.736;2023-04-25T11:41:53;8.30;99.90
10459;DHT22;5277;48.722;8.736;2023-04-25T11:44:20;8.30;99.90
10459;DHT22;5277;48.722;8.736;2023-04-25T11:46:46;8.30;99.90
10459;DHT22;5277;48.722;8.736;2023-04-25T11:49:12;8.30;99.90
10459;DHT22;5277;48.722;8.736;2023-04-25T11:51:43;8.30;99.90
10459;DHT22;5277;48.722;8.736;2023-04-25T11:54:09;8.20;99.90
10459;DHT22;5277;48.722;8.736;2023-04-25T11:56:35;8.30;99.90
10459;DHT22;5277;48.722;8.736;2023-04-25T11:59:05;8.40;99.90
10459;DHT22;5277;48.722;8.736;2023-04-25T12:01:33;8.60;99.90
10459;DHT22;5277;48.722;8.736;2023-04-25T12:04:16;8.60;99.90
10459;DHT22;5277;48.722;8.736;2023-04-25T12:06:44;8.50;99.90
10459;DHT22;5277;48.722;8.736;2023-04-25T12:09:12;8.70;99.90
10459;DHT22;5277;48.722;8.736;2023-04-25T12:11:48;8.90;99.90
10459;DHT22;5277;48.722;8.736;2023-04-25T12:14:25;8.90;99.90
10459;DHT22;5277;48.722;8.736;2023-04-25T12:16:52;9.00;99.90
10459;DHT22;5277;48.722;8.736;2023-04-25T12:19:19;9.10;99.90
10459;DHT22;5277;48.722;8.736;2023-04-25T12:21:46;9.20;99.90
10459;DHT22;5277;48.722;8.736;2023-04-25T12:24:14;9.50;99.90
10459;DHT22;5277;48.722;8.736;2023-04-25T12:27:13;9.70;99.90
10459;DHT22;5277;48.722;8.736;2023-04-25T12:29:54;9.90;99.90
10459;DHT22;5277;48.722;8.736;2023-04-25T12:32:20;10.10;99.90
10459;DHT22;5277;48.722;8.736;2023-04-25T12:34:46;10.30;99.90
10459;DHT22;5277;48.722;8.736;2023-04-25T12:37:12;10.30;99.90
10459;DHT22;5277;48.722;8.736;2023-04-25T12:39:38;10.50;99.90
10459;DHT22;5277;48.722;8.736;2023-04-25T12:42:03;10.70;99.90
10459;DHT22;5277;48.722;8.736;2023-04-25T12:44:29;10.70;99.90
10459;DHT22;5277;48.722;8.736;2023-04-25T12:46:55;10.40;99.90
10459;DHT22;5277;48.722;8.736;2023-04-25T12:49:21;10.50;99.90
10459;DHT22;5277;48.722;8.736;2023-04-25T12:51:47;10.80;99.90
10459;DHT22;5277;48.722;8.736;2023-04-25T12:54:13;10.90;99.90
10459;DHT22;5277;48.722;8.736;2023-04-25T12:56:40;10.90;99.90
10459;DHT22;5277;48.722;8.736;2023-04-25T12:59:06;10.90;99.90
10459;DHT22;5277;48.722;8.736;2023-04-25T13:01:31;10.90;99.90
10459;DHT22;5277;48.722;8.736;2023-04-25T13:03:58;10.80;99.90
10459;DHT22;5277;48.722;8.736;2023-04-25T13:06:23;10.80;99.90
10459;DHT22;5277;48.722;8.736;2023-04-25T13:08:49;10.60;99.90
10459;DHT22;5277;48.722;8.736;2023-04-25T13:11:15;10.80;99.90
10459;DHT22;5277;48.722;8.736;2023-04-25T13:13:41;10.90;99.90
10459;DHT22;5277;48.722;8.736;2023-04-25T13:16:07;10.90;99.90
10459;DHT22;5277;48.722;8.736;2023-04-25T13:18:34;11.10;99.90
10459;DHT22;5277;48.722;8.736;2023-04-25T13:20:59;11.00;99.90
10459;DHT22;5277;48.722;8.736;2023-04-25T13:23:27;11.20;99.90
10459;DHT22;5277;48.722;8.736;2023-04-25T13:25:53;11.30;99.90
10459;DHT22;5277;48.722;8.736;2023-04-25T13:28:18;11.20;99.90
10459;DHT22;5277;48.722;8.736;2023-04-25T13:30:45;11.10;99.90
10459;DHT22;5277;48.722;8.736;2023-04-25T13:33:12;11.10;99.90
10459;DHT22;5277;48.722;8.736;2023-04-25T13:35:38;11.10;99.90
10459;DHT22;5277;48.722;8.736;2023-04-25T13:38:04;11.00;99.90
10459;DHT22;5277;48.722;8.736;2023-04-25T13:40:30;11.00;99.90
10459;DHT22;5277;48.722;8.736;2023-04-25T13:42:56;10.80;99.90
10459;DHT22;5277;48.722;8.736;2023-04-25T13:45:21;10.90;99.90
10459;DHT22;5277;48.722;8.736;2023-04-25T13:47:47;11.10;99.90
10459;DHT22;5277;48.722;8.736;2023-04-25T13:50:13;11.30;99.90
10459;DHT22;5277;48.722;8.736;2023-04-25T13:52:40;11.30;99.90
10459;DHT22;5277;48.722;8.736;2023-04-25T13:55:06;11.20;99.90
10459;DHT22;5277;48.722;8.736;2023-04-25T13:57:34;11.20;99.90
10459;DHT22;5277;48.722;8.736;2023-04-25T14:00:00;11.40;99.90
10459;DHT22;5277;48.722;8.736;2023-04-25T14:02:31;11.50;99.90
10459;DHT22;5277;48.722;8.736;2023-04-25T14:04:56;11.60;99.90
10459;DHT22;5277;48.722;8.736;2023-04-25T14:07:22;11.70;99.90
10459;DHT22;5277;48.722;8.736;2023-04-25T14:09:48;11.60;99.90
10459;DHT22;5277;48.722;8.736;2023-04-25T14:12:14;11.50;99.90
10459;DHT22;5277;48.722;8.736;2023-04-25T14:14:39;11.70;99.90
10459;DHT22;5277;48.722;8.736;2023-04-25T14:17:05;11.70;99.90
10459;DHT22;5277;48.722;8.736;2023-04-25T14:19:32;11.50;99.20
10459;DHT22;5277;48.722;8.736;2023-04-25T14:21:57;11.50;99.70
10459;DHT22;5277;48.722;8.736;2023-04-25T14:24:23;11.70;99.90
10459;DHT22;5277;48.722;8.736;2023-04-25T14:26:48;11.80;99.80
10459;DHT22;5277;48.722;8.736;2023-04-25T14:29:14;11.80;99.90
10459;DHT22;5277;48.722;8.736;2023-04-25T14:31:40;11.80;99.90
10459;DHT22;5277;48.722;8.736;2023-04-25T14:34:06;11.80;99.90
10459;DHT22;5277;48.722;8.736;2023-04-25T14:36:32;11.80;99.90
10459;DHT22;5277;48.722;8.736;2023-04-25T14:38:58;11.90;99.90
10459;DHT22;5277;48.722;8.736;2023-04-25T14:41:24;12.10;99.90
10459;DHT22;5277;48.722;8.736;2023-04-25T14:43:51;12.10;99.50
10459;DHT22;5277;48.722;8.736;2023-04-25T14:46:18;12.10;99.90
10459;DHT22;5277;48.722;8.736;2023-04-25T14:48:43;12.10;99.90
10459;DHT22;5277;48.722;8.736;2023-04-25T14:51:09;11.90;99.90
10459;DHT22;5277;48.722;8.736;2023-04-25T14:53:35;12.00;99.90
10459;DHT22;5277;48.722;8.736;2023-04-25T14:56:00;11.80;99.90
10459;DHT22;5277;48.722;8.736;2023-04-25T14:58:26;11.90;99.90
10459;DHT22;5277;48.722;8.736;2023-04-25T15:00:52;11.90;99.90
10459;DHT22;5277;48.722;8.736;2023-04-25T15:03:18;11.90;99.90
10459;DHT22;5277;48.722;8.736;2023-04-25T15:05:43;11.80;99.90
10459;DHT22;5277;48.722;8.736;2023-04-25T15:08:09;11.90;99.90
10459;DHT22;5277;48.722;8.736;2023-04-25T15:10:35;12.00;99.90
10459;DHT22;5277;48.722;8.736;2023-04-25T15:13:01;12.10;99.90
10459;DHT22;5277;48.722;8.736;2023-04-25T15:15:28;12.10;99.90
10459;DHT22;5277;48.722;8.736;2023-04-25T15:17:53;12.10;99.90
10459;DHT22;5277;48.722;8.736;2023-04-25T15:20:20;12.10;99.90
10459;DHT22;5277;48.722;8.736;2023-04-25T15:22:46;12.20;99.90
10459;DHT22;5277;48.722;8.736;2023-04-25T15:25:14;12.00;99.90
10459;DHT22;5277;48.722;8.736;2023-04-25T15:27:40;12.10;99.90
10459;DHT22;5277;48.722;8.736;2023-04-25T15:30:10;12.00;99.90
10459;DHT22;5277;48.722;8.736;2023-04-25T15:32:37;12.00;99.90
10459;DHT22;5277;48.722;8.736;2023-04-25T15:35:04;12.00;99.90
10459;DHT22;5277;48.722;8.736;2023-04-25T15:37:31;12.00;99.90
10459;DHT22;5277;48.722;8.736;2023-04-25T15:40:05;12.00;99.90
10459;DHT22;5277;48.722;8.736;2023-04-25T15:42:35;12.00;99.90
10459;DHT22;5277;48.722;8.736;2023-04-25T15:45:05;11.80;99.90
10459;DHT22;5277;48.722;8.736;2023-04-25T15:47:31;11.70;99.90
10459;DHT22;5277;48.722;8.736;2023-04-25T15:49:58;11.70;99.90
10459;DHT22;5277;48.722;8.736;2023-04-25T15:52:23;11.70;99.90
10459;DHT22;5277;48.722;8.736;2023-04-25T15:54:49;11.70;99.90
10459;DHT22;5277;48.722;8.736;2023-04-25T15:57:15;11.70;99.90
10459;DHT22;5277;48.722;8.736;2023-04-25T15:59:40;11.80;99.90
10459;DHT22;5277;48.722;8.736;2023-04-25T16:02:06;11.80;99.90
10459;DHT22;5277;48.722;8.736;2023-04-25T16:04:33;11.90;99.90
10459;DHT22;5277;48.722;8.736;2023-04-25T16:07:00;11.80;99.90
10459;DHT22;5277;48.722;8.736;2023-04-25T16:09:28;11.80;99.90
10459;DHT22;5277;48.722;8.736;2023-04-25T16:11:53;11.90;99.90
10459;DHT22;5277;48.722;8.736;2023-04-25T16:14:19;11.90;99.90
10459;DHT22;5277;48.722;8.736;2023-04-25T16:16:45;11.70;99.90
10459;DHT22;5277;48.722;8.736;2023-04-25T16:19:11;11.70;99.90
10459;DHT22;5277;48.722;8.736;2023-04-25T16:21:36;11.80;99.90
10459;DHT22;5277;48.722;8.736;2023-04-25T16:24:02;11.80;99.90
10459;DHT22;5277;48.722;8.736;2023-04-25T16:26:28;11.60;99.90
10459;DHT22;5277;48.722;8.736;2023-04-25T16:28:54;11.60;99.90
10459;DHT22;5277;48.722;8.736;2023-04-25T16:31:19;11.60;99.90
10459;DHT22;5277;48.722;8.736;2023-04-25T16:33:45;11.60;99.90
10459;DHT22;5277;48.722;8.736;2023-04-25T16:36:11;11.60;99.90
10459;DHT22;5277;48.722;8.736;2023-04-25T16:38:38;11.60;99.90
10459;DHT22;5277;48.722;8.736;2023-04-25T16:41:06;11.50;99.90
10459;DHT22;5277;48.722;8.736;2023-04-25T16:43:32;11.60;99.90
10459;DHT22;5277;48.722;8.736;2023-04-25T16:45:58;11.60;99.90
10459;DHT22;5277;48.722;8.736;2023-04-25T16:48:24;11.60;99.90
10459;DHT22;5277;48.722;8.736;2023-04-25T16:50:51;11.60;99.90
10459;DHT22;5277;48.722;8.736;2023-04-25T16:53:17;11.30;99.90
10459;DHT22;5277;48.722;8.736;2023-04-25T16:55:43;11.30;99.90
10459;DHT22;5277;48.722;8.736;2023-04-25T16:58:09;11.30;99.90
10459;DHT22;5277;48.722;8.736;2023-04-25T17:00:39;11.20;99.90
10459;DHT22;5277;48.722;8.736;2023-04-25T17:03:04;11.10;99.90
10459;DHT22;5277;48.722;8.736;2023-04-25T17:05:30;10.90;99.90
10459;DHT22;5277;48.722;8.736;2023-04-25T17:07:56;11.00;99.90
10459;DHT22;5277;48.722;8.736;2023-04-25T17:10:22;11.00;99.90
10459;DHT22;5277;48.722;8.736;2023-04-25T17:12:47;10.80;99.90
10459;DHT22;5277;48.722;8.736;2023-04-25T17:15:14;10.70;99.90
10459;DHT22;5277;48.722;8.736;2023-04-25T17:17:40;10.60;99.90
10459;DHT22;5277;48.722;8.736;2023-04-25T17:20:06;10.50;99.90
10459;DHT22;5277;48.722;8.736;2023-04-25T17:22:35;10.40;99.90
10459;DHT22;5277;48.722;8.736;2023-04-25T17:25:02;10.40;99.90
10459;DHT22;5277;48.722;8.736;2023-04-25T17:27:28;10.40;99.90
10459;DHT22;5277;48.722;8.736;2023-04-25T17:29:54;10.40;99.90
10459;DHT22;5277;48.722;8.736;2023-04-25T17:32:20;10.30;99.90
10459;DHT22;5277;48.722;8.736;2023-04-25T17:34:46;10.10;99.90
10459;DHT22;5277;48.722;8.736;2023-04-25T17:37:13;10.10;99.90
10459;DHT22;5277;48.722;8.736;2023-04-25T17:39:43;10.10;99.90
10459;DHT22;5277;48.722;8.736;2023-04-25T17:42:09;10.10;99.90
10459;DHT22;5277;48.722;8.736;2023-04-25T17:44:39;10.20;99.90
10459;DHT22;5277;48.722;8.736;2023-04-25T17:47:05;10.20;99.90
10459;DHT22;5277;48.722;8.736;2023-04-25T17:49:31;10.20;99.90
10459;DHT22;5277;48.722;8.736;2023-04-25T17:51:58;10.10;99.90
10459;DHT22;5277;48.722;8.736;2023-04-25T17:54:24;10.10;99.90
10459;DHT22;5277;48.722;8.736;2023-04-25T17:56:50;10.00;99.90
10459;DHT22;5277;48.722;8.736;2023-04-25T17:59:16;10.00;99.90
10459;DHT22;5277;48.722;8.736;2023-04-25T18:01:42;9.90;99.90
10459;DHT22;5277;48.722;8.736;2023-04-25T18:04:10;9.80;99.90
10459;DHT22;5277;48.722;8.736;2023-04-25T18:06:35;9.60;99.90
10459;DHT22;5277;48.722;8.736;2023-04-25T18:09:01;9.60;99.90
10459;DHT22;5277;48.722;8.736;2023-04-25T18:11:28;9.50;99.90
10459;DHT22;5277;48.722;8.736;2023-04-25T18:13:54;9.40;99.90
10459;DHT22;5277;48.722;8.736;2023-04-25T18:16:20;9.40;99.90
10459;DHT22;5277;48.722;8.736;2023-04-25T18:18:47;9.30;99.90
10459;DHT22;5277;48.722;8.736;2023-04-25T18:21:18;9.30;99.90
10459;DHT22;5277;48.722;8.736;2023-04-25T18:23:44;9.30;99.90